Time;durP1;ratioP1;P1;durP2;ratioP2;P2;SDS_P1;SDS_P2;PMS_P1;PMS_P2;Temp;Humidity;BMP_temperature;BMP_pressure;BME280_temperature;BME280_humidity;BME280_pressure;Samples;Min_cycle;Max_cycle;Signal;HPM_P1;HPM_P2
2021/09/11 00:00:07;;;;;;;;;;;15.40;76.30;;;;;;5068977;28;20481;-71
2021/09/11 00:02:33;;;;;;;7.43;2.17;;;15.50;76.40;;;;;;5068382;28;19959;-71
2021/09/11 00:04:58;;;;;;;;;;;15.50;76.00;;;;;;5069011;28;20290;-71
2021/09/11 00:07:24;;;;;;;9.98;2.08;;;15.60;75.60;;;;;;5068208;28;19961;-71
2021/09/11 00:09:50;;;;;;;20.67;2.63;;;15.70;75.40;;;;;;5068524;28;20025;-72
2021/09/11 00:12:16;;;;;;;;;;;15.70;75.10;;;;;;5068904;28;20036;-71
2021/09/11 00:14:41;;;;;;;6.32;1.85;;;15.80;75.00;;;;;;5068532;28;20410;-69
2021/09/11 00:17:07;;;;;;;;;;;15.70;75.10;;;;;;5067399;28;20072;-69
2021/09/11 00:19:33;;;;;;;4.90;1.85;;;15.60;75.30;;;;;;5068205;28;19916;-69
2021/09/11 00:21:59;;;;;;;5.18;1.85;;;15.60;75.60;;;;;;5068080;28;20044;-69
2021/09/11 00:24:24;;;;;;;;;;;15.60;75.70;;;;;;5068610;28;20036;-69
2021/09/11 00:26:50;;;;;;;4.57;1.95;;;15.60;75.70;;;;;;5068132;28;19913;-70
2021/09/11 00:29:16;;;;;;;;;;;15.70;75.70;;;;;;5068594;28;20355;-70
2021/09/11 00:31:42;;;;;;;8.85;2.15;;;15.70;74.90;;;;;;5068227;28;19950;-71
2021/09/11 00:34:08;;;;;;;6.82;2.40;;;15.70;74.80;;;;;;5068240;28;20055;-70
2021/09/11 00:36:33;;;;;;;;;;;15.70;74.90;;;;;;5068584;28;20033;-71
2021/09/11 00:38:59;;;;;;;5.03;1.23;;;15.70;75.30;;;;;;5068090;28;19999;-72
2021/09/11 00:41:24;;;;;;;;;;;15.70;75.50;;;;;;5070089;28;20043;-71
2021/09/11 00:43:52;;;;;;;8.02;2.22;;;15.60;75.90;;;;;;5071006;28;19919;-71
2021/09/11 00:46:18;;;;;;;8.90;1.73;;;15.50;76.30;;;;;;5070783;28;20154;-71
2021/09/11 00:48:44;;;;;;;8.70;1.88;;;15.50;77.10;;;;;;5072062;28;20020;-71
2021/09/11 00:51:11;;;;;;;5.53;1.90;;;15.50;76.70;;;;;;5072016;28;20029;-70
2021/09/11 00:53:38;;;;;;;4.90;2.35;;;15.50;76.70;;;;;;5071604;28;20078;-70
2021/09/11 00:56:04;;;;;;;14.10;2.75;;;15.50;76.50;;;;;;5071749;28;20087;-70
2021/09/11 00:58:30;;;;;;;6.65;2.00;;;15.50;76.00;;;;;;5071720;28;20016;-71
2021/09/11 01:00:56;;;;;;;;;;;15.60;76.00;;;;;;5072108;28;20390;-69
2021/09/11 01:03:22;;;;;;;5.57;1.88;;;15.60;75.90;;;;;;5071387;28;19912;-71
2021/09/11 01:05:47;;;;;;;;;;;15.60;77.00;;;;;;5072193;28;20075;-70
2021/09/11 01:08:13;;;;;;;5.18;2.15;;;15.50;76.90;;;;;;5071628;28;19914;-71
2021/09/11 01:10:40;;;;;;;5.65;1.88;;;15.50;77.00;;;;;;5070120;28;20028;-70
2021/09/11 01:13:08;;;;;;;4.38;2.08;;;15.40;77.70;;;;;;5071500;28;20025;-72
2021/09/11 01:15:37;;;;;;;7.97;3.08;;;15.40;78.30;;;;;;5071378;28;20111;-72
2021/09/11 01:18:04;;;;;;;4.38;2.33;;;15.30;78.60;;;;;;5069948;28;20040;-70
2021/09/11 01:20:31;;;;;;;6.90;2.33;;;15.30;78.60;;;;;;5071334;28;20032;-72
2021/09/11 01:22:57;;;;;;;5.20;1.60;;;15.30;79.10;;;;;;5071071;28;20063;-70
2021/09/11 01:25:22;;;;;;;;;;;15.30;79.30;;;;;;5071258;28;20497;-72
2021/09/11 01:27:48;;;;;;;5.00;1.95;;;15.30;78.90;;;;;;5069977;28;19920;-72
2021/09/11 01:30:15;;;;;;;;;;;15.20;78.50;;;;;;5071632;28;20036;-70
2021/09/11 01:32:41;;;;;;;7.90;2.78;;;15.30;78.00;;;;;;5071469;28;19905;-73
2021/09/11 01:35:08;;;;;;;8.00;1.88;;;15.40;77.30;;;;;;5071187;28;20111;-71
2021/09/11 01:37:34;;;;;;;7.57;2.20;;;15.50;76.80;;;;;;5069613;28;20027;-73
2021/09/11 01:40:00;;;;;;;10.73;2.78;;;15.50;76.40;;;;;;5071121;28;20513;-72
2021/09/11 01:42:27;;;;;;;;;;;15.60;76.20;;;;;;5071331;28;20039;-70
2021/09/11 01:44:58;;;;;;;7.90;2.28;;;15.60;76.10;;;;;;5069516;28;19908;-70
2021/09/11 01:47:24;;;;;;;6.22;1.98;;;15.50;76.30;;;;;;5070635;28;20032;-71
2021/09/11 01:49:49;;;;;;;;;;;15.40;76.60;;;;;;5069921;28;20025;-71
2021/09/11 01:52:15;;;;;;;6.32;1.70;;;15.40;77.00;;;;;;5069139;28;19961;-71
2021/09/11 01:54:41;;;;;;;;;;;15.30;77.20;;;;;;5071158;28;20040;-72
2021/09/11 01:57:08;;;;;;;3.83;1.88;;;15.30;77.30;;;;;;5070646;28;19921;-72
2021/09/11 01:59:35;;;;;;;5.60;2.10;;;15.30;77.30;;;;;;5070229;28;20502;-72
2021/09/11 02:02:01;;;;;;;7.80;2.28;;;15.20;77.50;;;;;;5070434;28;20044;-72
2021/09/11 02:04:26;;;;;;;11.25;2.58;;;15.20;77.90;;;;;;5070629;28;20021;-71
2021/09/11 02:06:52;;;;;;;;;;;15.10;78.40;;;;;;5069508;28;20038;-72
2021/09/11 02:09:18;;;;;;;8.77;2.38;;;15.00;78.90;;;;;;5070479;28;20395;-72
2021/09/11 02:11:43;;;;;;;;;;;15.00;79.10;;;;;;5070940;28;20040;-71
2021/09/11 02:14:09;;;;;;;6.18;2.30;;;15.00;79.20;;;;;;5070527;28;19962;-72
2021/09/11 02:16:35;;;;;;;6.88;2.35;;;14.90;79.30;;;;;;5070289;28;20485;-72
2021/09/11 02:19:00;;;;;;;;;;;15.00;79.40;;;;;;5070684;28;20115;-71
2021/09/11 02:21:26;;;;;;;8.68;2.55;;;14.90;79.50;;;;;;5070165;28;20121;-72
2021/09/11 02:23:51;;;;;;;;;;;14.90;79.80;;;;;;5070799;28;20028;-72
2021/09/11 02:26:17;;;;;;;5.88;2.50;;;15.00;79.30;;;;;;5068678;28;19915;-72
2021/09/11 02:28:43;;;;;;;;;;;15.00;78.70;;;;;;5069149;28;20060;-72
2021/09/11 02:31:09;;;;;;;4.60;2.67;;;15.10;79.20;;;;;;5070042;28;20202;-71
2021/09/11 02:33:36;;;;;;;10.48;3.67;;;15.10;79.20;;;;;;5069690;28;20024;-71
2021/09/11 02:36:02;;;;;;;8.75;2.40;;;15.00;79.70;;;;;;5068651;28;20028;-71
2021/09/11 02:38:28;;;;;;;;;;;14.80;80.10;;;;;;5069842;28;20028;-70
2021/09/11 02:40:53;;;;;;;7.78;2.70;;;14.80;80.70;;;;;;5069663;28;19908;-72
2021/09/11 02:43:19;;;;;;;3.92;2.35;;;14.70;82.00;;;;;;5069574;28;20067;-72
2021/09/11 02:45:44;;;;;;;;;;;14.60;81.90;;;;;;5068749;28;20025;-70
2021/09/11 02:48:10;;;;;;;7.25;2.67;;;14.50;82.10;;;;;;5069541;28;19997;-72
2021/09/11 02:50:35;;;;;;;;;;;14.50;82.60;;;;;;5070081;28;20495;-72
2021/09/11 02:53:01;;;;;;;3.90;2.13;;;14.40;82.90;;;;;;5069843;28;19908;-72
2021/09/11 02:55:27;;;;;;;;;;;14.40;83.10;;;;;;5068184;28;20024;-72
2021/09/11 02:57:52;;;;;;;5.93;2.58;;;14.30;83.70;;;;;;5069360;28;19924;-71
2021/09/11 03:00:18;;;;;;;;;;;14.30;83.90;;;;;;5069879;28;20055;-72
2021/09/11 03:02:44;;;;;;;8.40;2.72;;;14.20;84.30;;;;;;5069071;28;19921;-71
2021/09/11 03:05:09;;;;;;;;;;;14.20;84.50;;;;;;5069060;28;20051;-72
2021/09/11 03:07:35;;;;;;;9.60;2.58;;;14.10;85.20;;;;;;5068874;28;19908;-71
2021/09/11 03:10:00;;;;;;;5.93;2.67;;;14.10;85.50;;;;;;5069105;28;20024;-69
2021/09/11 03:12:26;;;;;;;;;;;14.10;85.90;;;;;;5068391;28;20047;-72
2021/09/11 03:14:51;;;;;;;7.18;3.03;;;14.00;86.40;;;;;;5068992;28;19905;-72
2021/09/11 03:17:17;;;;;;;;;;;13.90;86.60;;;;;;5069168;28;20033;-71
2021/09/11 03:19:43;;;;;;;6.47;2.92;;;13.90;87.20;;;;;;5067511;28;20438;-72
2021/09/11 03:22:08;;;;;;;;;;;13.80;87.70;;;;;;5068487;28;20082;-72
2021/09/11 03:24:34;;;;;;;4.78;2.63;;;13.80;88.30;;;;;;5067002;28;19915;-71
2021/09/11 03:26:59;;;;;;;;;;;13.80;88.80;;;;;;5068325;28;20401;-71
2021/09/11 03:29:25;;;;;;;5.68;2.92;;;13.70;89.00;;;;;;5067687;28;20418;-71
2021/09/11 03:31:50;;;;;;;;;;;13.80;88.60;;;;;;5068454;28;20036;-71
2021/09/11 03:34:16;;;;;;;12.63;3.28;;;13.90;88.60;;;;;;5066796;28;19908;-71
2021/09/11 03:36:42;;;;;;;;;;;13.90;88.60;;;;;;5068631;28;20024;-71
2021/09/11 03:39:08;;;;;;;5.10;2.75;;;13.90;88.60;;;;;;5068208;28;20326;-70
2021/09/11 03:41:33;;;;;;;;;;;13.90;88.60;;;;;;5067599;28;20038;-71
2021/09/11 03:43:59;;;;;;;6.55;2.88;;;13.90;88.80;;;;;;5068867;28;20682;-72
2021/09/11 03:46:24;;;;;;;;;;;13.90;89.00;;;;;;5069008;28;20400;-72
2021/09/11 03:48:50;;;;;;;9.82;2.75;;;13.80;89.10;;;;;;5068776;28;19913;-72
2021/09/11 03:51:15;;;;;;;;;;;13.80;89.30;;;;;;5067309;28;20020;-73
2021/09/11 03:53:41;;;;;;;6.63;3.55;;;13.80;89.50;;;;;;5068628;28;19912;-69
2021/09/11 03:56:07;;;;;;;;;;;13.80;89.60;;;;;;5068042;28;20055;-72
2021/09/11 03:58:33;;;;;;;5.47;3.33;;;13.80;90.00;;;;;;5067547;28;19999;-72
2021/09/11 04:01:01;;;;;;;9.27;3.08;;;13.80;90.10;;;;;;5067555;28;20027;-72
2021/09/11 04:03:27;;;;;;;9.30;3.22;;;13.70;90.20;;;;;;5066854;28;20059;-71
2021/09/11 04:05:52;;;;;;;;;;;13.70;90.40;;;;;;5068791;28;20493;-73
2021/09/11 04:08:19;;;;;;;13.25;3.67;;;13.60;90.50;;;;;;5068391;28;20000;-72
2021/09/11 04:10:44;;;;;;;6.40;2.90;;;13.60;90.60;;;;;;5068435;28;20051;-72
2021/09/11 04:13:10;;;;;;;;;;;13.60;90.70;;;;;;5068915;28;20058;-73
2021/09/11 04:15:35;;;;;;;7.45;3.25;;;13.60;90.80;;;;;;5066482;28;20708;-73
2021/09/11 04:18:01;;;;;;;;;;;13.60;90.70;;;;;;5068896;28;20424;-73
2021/09/11 04:20:27;;;;;;;12.25;2.75;;;13.60;90.90;;;;;;5066862;28;19908;-73
2021/09/11 04:22:52;;;;;;;;;;;13.60;91.00;;;;;;5068612;28;20405;-73
2021/09/11 04:25:18;;;;;;;7.35;3.20;;;13.60;91.10;;;;;;5068142;28;20458;-72
2021/09/11 04:27:43;;;;;;;;;;;13.60;91.10;;;;;;5068699;28;20035;-73
2021/09/11 04:30:10;;;;;;;13.20;3.47;;;13.60;91.20;;;;;;5068484;28;20334;-73
2021/09/11 04:32:36;;;;;;;7.10;3.53;;;13.60;91.00;;;;;;5068096;28;20362;-71
2021/09/11 04:35:02;;;;;;;;;;;13.70;91.00;;;;;;5068623;28;20031;-72
2021/09/11 04:37:28;;;;;;;7.95;3.00;;;13.70;91.10;;;;;;5067952;28;19908;-70
2021/09/11 04:39:54;;;;;;;7.95;4.53;;;13.80;91.10;;;;;;5068002;28;20033;-72
2021/09/11 04:42:20;;;;;;;10.43;3.63;;;13.80;91.10;;;;;;5068115;28;20035;-72
2021/09/11 04:44:46;;;;;;;10.52;4.35;;;13.80;91.00;;;;;;5067972;28;20033;-72
2021/09/11 04:47:11;;;;;;;;;;;13.80;91.00;;;;;;5068549;28;20039;-72
2021/09/11 04:49:37;;;;;;;8.57;3.50;;;13.90;91.00;;;;;;5067944;28;20372;-72
2021/09/11 04:52:03;;;;;;;;;;;14.00;90.90;;;;;;5068631;28;20024;-72
2021/09/11 04:54:29;;;;;;;10.35;4.25;;;14.30;90.60;;;;;;5068084;28;19905;-72
2021/09/11 04:56:54;;;;;;;;;;;14.90;89.10;;;;;;5068395;28;20051;-72
2021/09/11 04:59:20;;;;;;;10.00;4.47;;;15.40;86.20;;;;;;5067721;28;19983;-72
2021/09/11 05:01:46;;;;;;;;;;;15.50;85.10;;;;;;5067161;28;20424;-72
2021/09/11 05:04:11;;;;;;;6.32;3.63;;;15.60;84.90;;;;;;5068133;28;19926;-72
2021/09/11 05:06:37;;;;;;;;;;;15.50;85.20;;;;;;5068102;28;20056;-71
2021/09/11 05:09:02;;;;;;;6.32;3.40;;;15.40;86.50;;;;;;5067885;28;19904;-73
2021/09/11 05:11:28;;;;;;;;;;;15.40;86.20;;;;;;5068201;28;20042;-73
2021/09/11 05:13:54;;;;;;;5.57;3.35;;;15.30;86.50;;;;;;5066512;28;19948;-73
2021/09/11 05:16:19;;;;;;;7.53;3.90;;;15.40;86.70;;;;;;5067869;28;20028;-73
2021/09/11 05:18:45;;;;;;;;;;;15.50;86.60;;;;;;5068208;28;20055;-73
2021/09/11 05:21:10;;;;;;;16.05;3.42;;;15.80;86.20;;;;;;5067723;28;20283;-72
2021/09/11 05:23:36;;;;;;;;;;;16.30;84.80;;;;;;5068025;28;20039;-70
2021/09/11 05:26:03;;;;;;;16.98;8.48;;;17.00;81.90;;;;;;5067664;28;19915;-71
2021/09/11 05:28:29;;;;;;;48.92;23.73;;;17.70;79.70;;;;;;5070631;28;20404;-71
2021/09/11 05:30:55;;;;;;;69.85;34.20;;;18.30;76.80;;;;;;5069660;28;20074;-71
2021/09/11 05:33:20;;;;;;;73.53;34.72;;;18.90;73.60;;;;;;5070953;28;20493;-70
2021/09/11 05:35:46;;;;;;;75.30;35.15;;;19.40;71.50;;;;;;5069739;28;20028;-71
2021/09/11 05:38:12;;;;;;;65.75;31.58;;;19.80;70.00;;;;;;5071031;28;20021;-72
2021/09/11 05:40:38;;;;;;;50.97;27.27;;;20.20;68.70;;;;;;5069545;28;20090;-72
2021/09/11 05:43:03;;;;;;;43.35;21.73;;;20.40;68.10;;;;;;5069012;28;20052;-71
2021/09/11 05:45:29;;;;;;;43.15;23.35;;;20.60;66.70;;;;;;5070936;28;20108;-70
2021/09/11 05:47:55;;;;;;;42.45;23.80;;;20.70;66.00;;;;;;5068849;28;20068;-71
2021/09/11 05:50:20;;;;;;;43.95;24.13;;;20.50;66.20;;;;;;5068583;28;20031;-72
2021/09/11 05:52:46;;;;;;;46.70;24.13;;;20.50;66.80;;;;;;5069771;28;20825;-72
2021/09/11 05:55:12;;;;;;;51.47;29.88;;;20.60;66.30;;;;;;5070280;28;20032;-72
2021/09/11 05:57:38;;;;;;;64.47;35.08;;;20.70;65.90;;;;;;5070285;28;20810;-73
2021/09/11 06:00:04;;;;;;;65.65;35.58;;;20.80;65.70;;;;;;5070638;28;20033;-78
2021/09/11 06:02:30;;;;;;;64.65;36.80;;;20.80;65.40;;;;;;5070658;28;20045;-78
2021/09/11 06:04:56;;;;;;;60.65;31.05;;;20.90;65.10;;;;;;5070582;28;20067;-79
2021/09/11 06:07:21;;;;;;;33.13;19.45;;;21.00;64.80;;;;;;5069153;28;20454;-78
2021/09/11 06:09:47;;;;;;;30.35;16.42;;;21.30;64.00;;;;;;5069289;28;20523;-78
2021/09/11 06:12:13;;;;;;;21.77;11.52;;;21.50;63.40;;;;;;5070346;28;20378;-77
2021/09/11 06:14:39;;;;;;;14.27;8.13;;;22.00;62.50;;;;;;5070081;28;20092;-78
2021/09/11 06:17:06;;;;;;;18.63;7.65;;;22.60;61.30;;;;;;5070356;28;20682;-77
2021/09/11 06:19:33;;;;;;;17.70;6.57;;;23.30;59.30;;;;;;5070124;28;20016;-75
2021/09/11 06:21:59;;;;;;;14.70;6.43;;;24.00;57.60;;;;;;5068685;28;20123;-75
2021/09/11 06:24:25;;;;;;;10.32;6.45;;;24.60;55.70;;;;;;5070304;28;20028;-75
2021/09/11 06:26:50;;;;;;;12.13;5.88;;;25.30;53.70;;;;;;5070074;28;20052;-75
2021/09/11 06:29:16;;;;;;;13.35;5.90;;;25.90;52.50;;;;;;5069889;28;20028;-75
2021/09/11 06:31:42;;;;;;;10.48;6.25;;;26.50;50.60;;;;;;5070050;28;20111;-75
2021/09/11 06:34:07;;;;;;;8.48;5.75;;;27.00;48.30;;;;;;5069915;28;20496;-76
2021/09/11 06:36:33;;;;;;;7.13;4.15;;;27.40;47.00;;;;;;5069961;28;20071;-75
2021/09/11 06:38:59;;;;;;;7.57;4.25;;;27.80;46.20;;;;;;5068311;28;20393;-75
2021/09/11 06:41:24;;;;;;;47.22;33.20;;;28.20;45.70;;;;;;5069225;28;20061;-74
2021/09/11 06:43:50;;;;;;;14.98;7.00;;;28.60;44.60;;;;;;5068902;28;20067;-74
2021/09/11 06:46:16;;;;;;;10.07;6.60;;;28.80;42.70;;;;;;5067353;28;20028;-74
2021/09/11 06:48:41;;;;;;;57.63;42.92;;;29.20;40.80;;;;;;5068725;28;20035;-74
2021/09/11 06:51:07;;;;;;;67.65;52.92;;;29.40;40.00;;;;;;5068839;28;20028;-74
2021/09/11 06:53:32;;;;;;;49.30;41.13;;;29.60;40.10;;;;;;5068412;28;20074;-74
2021/09/11 06:55:58;;;;;;;9.07;7.60;;;30.10;39.90;;;;;;5068398;28;20532;-74
2021/09/11 06:58:24;;;;;;;11.70;3.30;;;30.60;39.30;;;;;;5067227;28;20555;-74
2021/09/11 07:00:49;;;;;;;7.53;3.65;;;30.90;38.70;;;;;;5068285;28;20095;-74
2021/09/11 07:03:15;;;;;;;6.72;3.20;;;31.10;37.90;;;;;;5067853;28;20451;-75
2021/09/11 07:05:42;;;;;;;6.45;2.67;;;31.50;37.20;;;;;;5067854;28;20414;-75
2021/09/11 07:08:08;;;;;;;5.63;2.75;;;31.80;35.70;;;;;;5069216;28;20489;-75
2021/09/11 07:10:33;;;;;;;5.70;3.28;;;32.20;35.30;;;;;;5069184;28;20028;-75
2021/09/11 07:12:59;;;;;;;9.70;3.25;;;32.50;34.50;;;;;;5069195;28;20033;-75
2021/09/11 07:15:25;;;;;;;10.52;3.50;;;32.50;33.70;;;;;;5068915;28;20029;-75
2021/09/11 07:17:52;;;;;;;4.38;3.17;;;32.70;33.80;;;;;;5069098;28;20127;-75
2021/09/11 07:20:17;;;;;;;7.07;3.85;;;33.10;33.70;;;;;;5067988;28;20122;-73
2021/09/11 07:22:43;;;;;;;6.50;3.22;;;33.50;33.20;;;;;;5068999;28;20585;-74
2021/09/11 07:25:09;;;;;;;12.98;3.75;;;33.70;32.60;;;;;;5068937;28;20393;-74
2021/09/11 07:27:35;;;;;;;6.43;3.08;;;33.90;31.40;;;;;;5067969;28;20039;-74
2021/09/11 07:30:01;;;;;;;5.35;3.38;;;34.10;32.10;;;;;;5068642;28;20021;-74
2021/09/11 07:32:26;;;;;;;11.18;4.22;;;34.40;31.80;;;;;;5068965;28;20055;-74
2021/09/11 07:34:53;;;;;;;14.65;3.83;;;34.60;31.20;;;;;;5068996;28;20078;-74
2021/09/11 07:37:18;;;;;;;8.18;3.90;;;34.90;30.80;;;;;;5068824;28;20421;-74
2021/09/11 07:39:44;;;;;;;14.20;3.17;;;35.10;30.30;;;;;;5067990;28;20035;-74
2021/09/11 07:42:10;;;;;;;11.15;4.07;;;35.00;30.50;;;;;;5068892;28;20029;-74
2021/09/11 07:44:36;;;;;;;8.25;3.72;;;34.90;30.30;;;;;;5068736;28;20020;-74
2021/09/11 07:47:02;;;;;;;11.10;3.63;;;35.10;30.00;;;;;;5068631;28;20790;-74
2021/09/11 07:49:27;;;;;;;6.13;2.72;;;35.20;29.50;;;;;;5066521;28;20021;-75
2021/09/11 07:51:53;;;;;;;8.05;3.38;;;35.10;29.80;;;;;;5068487;28;20028;-73
2021/09/11 07:54:19;;;;;;;9.85;3.53;;;35.20;29.60;;;;;;5068455;28;20370;-74
2021/09/11 07:56:44;;;;;;;8.05;3.08;;;35.30;29.90;;;;;;5068198;28;20856;-74
2021/09/11 07:59:10;;;;;;;10.93;3.70;;;35.70;29.30;;;;;;5068599;28;20599;-74
2021/09/11 08:01:35;;;;;;;4.55;2.45;;;35.60;29.20;;;;;;5068294;28;20579;-74
2021/09/11 08:04:01;;;;;;;11.18;3.22;;;35.40;29.40;;;;;;5067654;28;20127;-74
2021/09/11 08:06:27;;;;;;;11.85;2.72;;;35.80;29.60;;;;;;5068476;28;20111;-74
2021/09/11 08:08:52;;;;;;;10.60;2.83;;;36.10;29.20;;;;;;5068291;28;20054;-73
2021/09/11 08:11:18;;;;;;;7.60;2.92;;;36.10;28.90;;;;;;5068222;28;20033;-73
2021/09/11 08:13:44;;;;;;;16.17;3.95;;;36.00;28.70;;;;;;5068389;28;20107;-74
2021/09/11 08:16:10;;;;;;;9.23;2.80;;;36.00;28.30;;;;;;5067820;28;20040;-73
2021/09/11 08:18:36;;;;;;;3.53;2.88;;;36.00;28.10;;;;;;5067571;28;20067;-74
2021/09/11 08:21:01;;;;;;;6.60;3.03;;;36.10;28.40;;;;;;5067279;28;20400;-74
2021/09/11 08:23:27;;;;;;;5.43;2.90;;;36.50;28.10;;;;;;5067144;28;20481;-75
2021/09/11 08:25:53;;;;;;;6.38;2.67;;;36.70;27.70;;;;;;5067232;28;20035;-75
2021/09/11 08:28:18;;;;;;;6.72;3.47;;;36.60;27.90;;;;;;5066405;28;20044;-74
2021/09/11 08:30:44;;;;;;;7.57;2.80;;;36.50;28.20;;;;;;5067265;28;20028;-75
2021/09/11 08:33:11;;;;;;;9.20;2.92;;;36.50;28.10;;;;;;5065993;28;20481;-74
2021/09/11 08:35:38;;;;;;;9.15;3.38;;;36.20;27.90;;;;;;5065663;28;20039;-74
2021/09/11 08:38:03;;;;;;;11.48;3.00;;;36.10;28.20;;;;;;5066020;28;20035;-74
2021/09/11 08:40:29;;;;;;;10.45;2.97;;;36.10;28.20;;;;;;5067615;28;20024;-74
2021/09/11 08:42:55;;;;;;;5.72;2.75;;;36.00;28.50;;;;;;5067811;28;20036;-73
2021/09/11 08:45:20;;;;;;;6.03;3.38;;;36.00;29.10;;;;;;5066419;28;20452;-74
2021/09/11 08:47:48;;;;;;;17.33;3.67;;;35.60;29.20;;;;;;5068068;28;20021;-75
2021/09/11 08:50:16;;;;;;;7.50;3.40;;;35.80;29.40;;;;;;5057852;28;20409;-76
2021/09/11 08:52:44;;;;;;;9.63;3.38;;;35.90;28.70;;;;;;5065941;28;20028;-81
2021/09/11 08:55:12;;;;;;;6.38;3.10;;;36.20;28.00;;;;;;5065932;28;20482;-79
2021/09/11 08:57:38;;;;;;;8.95;3.00;;;35.80;28.40;;;;;;5065300;28;20052;-81
2021/09/11 09:00:06;;;;;;;7.75;2.80;;;35.50;28.50;;;;;;5064344;28;20047;-81
2021/09/11 09:02:32;;;;;;;11.75;3.22;;;35.90;28.60;;;;;;5068561;28;20467;-81
2021/09/11 09:05:00;;;;;;;5.20;3.05;;;35.90;28.10;;;;;;5068881;28;20020;-78
2021/09/11 09:07:38;;;;;;;4.97;3.58;;;35.90;27.80;;;;;;5069090;28;20025;-76
2021/09/11 09:10:16;;;;;;;7.60;3.47;;;35.90;27.80;;;;;;5067739;28;20029;-76
2021/09/11 09:12:46;;;;;;;9.82;3.28;;;35.80;27.60;;;;;;5067954;28;20113;-76
2021/09/11 09:15:17;;;;;;;7.03;2.88;;;36.00;28.00;;;;;;5069482;28;20028;-76
2021/09/11 09:17:47;;;;;;;5.40;3.13;;;36.10;27.70;;;;;;5069352;28;20031;-75
2021/09/11 09:20:23;;;;;;;6.80;2.75;;;36.50;27.30;;;;;;5068728;28;20077;-76
2021/09/11 09:23:17;;;;;;;11.48;2.90;;;36.40;27.60;;;;;;5069102;28;20036;-76
2021/09/11 09:25:43;;;;;;;5.38;2.75;;;36.60;27.70;;;;;;5066189;28;20119;-76
2021/09/11 09:28:11;;;;;;;6.80;2.88;;;36.70;27.00;;;;;;5069901;28;20031;-76
2021/09/11 09:30:45;;;;;;;9.38;3.40;;;36.60;27.00;;;;;;5071111;28;20533;-76
2021/09/11 09:33:20;;;;;;;7.23;3.40;;;36.50;27.40;;;;;;5070321;28;20563;-77
2021/09/11 09:35:47;;;;;;;8.05;3.42;;;36.30;26.90;;;;;;5069748;28;20028;-76
2021/09/11 09:38:13;;;;;;;9.77;2.63;;;36.40;26.90;;;;;;5070972;28;20029;-75
2021/09/11 09:40:49;;;;;;;10.43;3.03;;;36.50;27.10;;;;;;5069511;28;20512;-76
2021/09/11 09:43:54;;;;;;;4.35;2.50;;;36.70;26.80;;;;;;5069518;28;20036;-77
2021/09/11 09:46:20;;;;;;;4.57;2.67;;;36.80;26.40;;;;;;5048191;28;20499;-76
2021/09/11 09:48:48;;;;;;;9.43;2.80;;;36.80;26.80;;;;;;5048236;28;20112;-76
2021/09/11 09:51:18;;;;;;;8.57;2.90;;;36.80;26.40;;;;;;5058976;28;20043;-76
2021/09/11 09:53:48;;;;;;;26.70;4.18;;;37.00;26.40;;;;;;5070753;28;20107;-75
2021/09/11 09:56:14;;;;;;;7.50;2.78;;;37.00;26.10;;;;;;5069036;28;20060;-75
2021/09/11 09:58:40;;;;;;;9.80;2.63;;;36.90;26.10;;;;;;5070697;28;20024;-74
2021/09/11 10:01:06;;;;;;;7.15;2.42;;;36.90;25.80;;;;;;5070425;28;20485;-76
2021/09/11 10:03:32;;;;;;;12.40;2.95;;;36.90;26.30;;;;;;5070340;28;20039;-76
2021/09/11 10:06:11;;;;;;;6.63;2.22;;;36.60;26.60;;;;;;5069401;28;20423;-76
2021/09/11 10:08:44;;;;;;;8.40;3.05;;;36.70;26.00;;;;;;5070458;28;20025;-76
2021/09/11 10:11:10;;;;;;;4.20;2.45;;;36.70;26.30;;;;;;5070465;28;20086;-76
2021/09/11 10:13:37;;;;;;;6.63;2.30;;;36.90;26.20;;;;;;5069551;28;20024;-77
2021/09/11 10:16:09;;;;;;;6.70;2.35;;;37.10;25.60;;;;;;5069865;28;20095;-76
2021/09/11 10:18:35;;;;;;;7.43;2.55;;;36.90;25.90;;;;;;5070121;28;20052;-75
2021/09/11 10:21:40;;;;;;;9.13;2.15;;;36.70;26.00;;;;;;5070462;28;20059;-76
2021/09/11 10:24:15;;;;;;;6.57;2.70;;;35.90;26.30;;;;;;5069791;28;20055;-75
2021/09/11 10:26:46;;;;;;;7.32;3.20;;;35.10;26.40;;;;;;5070096;28;20107;-76
2021/09/11 10:29:30;;;;;;;2.70;2.10;;;34.10;27.20;;;;;;5070176;28;20835;-74
2021/09/11 10:32:17;;;;;;;6.97;2.45;;;33.40;27.90;;;;;;5069881;28;20409;-75
2021/09/11 10:34:51;;;;;;;5.93;2.30;;;32.80;28.70;;;;;;5069655;28;20028;-74
2021/09/11 10:37:43;;;;;;;13.90;2.55;;;32.20;28.70;;;;;;5069552;28;20113;-75
2021/09/11 10:40:17;;;;;;;7.30;2.38;;;31.90;29.80;;;;;;5066815;28;20065;-75
2021/09/11 10:43:05;;;;;;;10.27;2.40;;;31.70;29.80;;;;;;5068305;28;20047;-74
2021/09/11 10:45:36;;;;;;;5.05;2.25;;;31.40;30.00;;;;;;5068243;28;20690;-74
2021/09/11 10:48:06;;;;;;;6.70;2.28;;;31.30;30.60;;;;;;5069726;28;20069;-74
2021/09/11 10:50:38;;;;;;;8.07;2.92;;;31.10;30.90;;;;;;5069490;28;20024;-74
2021/09/11 10:53:21;;;;;;;9.43;2.38;;;31.00;31.20;;;;;;5069586;28;20059;-74
2021/09/11 10:55:48;;;;;;;4.63;2.15;;;30.80;30.20;;;;;;5067976;28;20134;-74
2021/09/11 10:58:26;;;;;;;4.35;2.30;;;30.60;30.80;;;;;;5069416;28;20036;-74
2021/09/11 11:00:57;;;;;;;5.75;2.42;;;30.40;30.80;;;;;;5067987;28;20052;-75
2021/09/11 11:03:23;;;;;;;6.35;2.60;;;30.20;31.00;;;;;;5069148;28;20457;-76
2021/09/11 11:06:03;;;;;;;12.45;2.45;;;30.10;31.00;;;;;;5069368;28;20050;-76
2021/09/11 11:08:30;;;;;;;6.07;2.47;;;29.90;30.50;;;;;;5069263;28;20038;-76
2021/09/11 11:10:56;;;;;;;6.53;2.35;;;29.50;30.80;;;;;;5068597;28;20028;-76
2021/09/11 11:13:24;;;;;;;6.05;3.05;;;29.30;31.50;;;;;;5069302;28;20038;-76
2021/09/11 11:15:57;;;;;;;5.32;2.38;;;29.30;31.90;;;;;;5069055;28;20513;-75
2021/09/11 11:18:26;;;;;;;9.38;2.72;;;29.20;32.20;;;;;;5068268;28;20044;-75
2021/09/11 11:20:52;;;;;;;7.60;2.60;;;29.30;33.00;;;;;;5068015;28;20063;-74
2021/09/11 11:23:18;;;;;;;8.98;2.55;;;29.40;31.80;;;;;;5066763;28;20510;-73
2021/09/11 11:25:44;;;;;;;6.63;2.25;;;29.30;32.60;;;;;;5067134;28;20140;-75
2021/09/11 11:28:11;;;;;;;5.57;3.33;;;29.10;31.40;;;;;;5068118;28;20489;-75
2021/09/11 11:30:39;;;;;;;11.70;2.95;;;29.00;32.70;;;;;;5066779;28;20119;-75
2021/09/11 11:33:06;;;;;;;15.60;3.08;;;28.90;32.20;;;;;;5067842;28;20039;-74
2021/09/11 11:35:32;;;;;;;10.13;2.67;;;28.90;31.70;;;;;;5068051;28;20035;-75
2021/09/11 11:37:58;;;;;;;7.07;2.22;;;28.80;31.70;;;;;;5068025;28;20081;-74
2021/09/11 11:40:25;;;;;;;4.82;2.33;;;28.90;32.00;;;;;;5067991;28;20032;-74
2021/09/11 11:42:51;;;;;;;5.40;2.10;;;29.00;32.50;;;;;;5068630;28;20119;-74
2021/09/11 11:45:17;;;;;;;11.50;2.70;;;29.10;32.00;;;;;;5068534;28;20481;-75
2021/09/11 11:47:55;;;;;;;16.48;2.10;;;29.00;31.80;;;;;;5067549;28;20037;-75
2021/09/11 11:50:30;;;;;;;8.35;2.13;;;29.10;32.00;;;;;;5068589;28;20107;-75
2021/09/11 11:53:00;;;;;;;12.38;2.72;;;29.20;32.00;;;;;;5067156;28;20099;-75
2021/09/11 11:55:28;;;;;;;6.07;2.13;;;29.10;31.80;;;;;;5066609;28;20068;-75
2021/09/11 11:58:10;;;;;;;5.65;2.10;;;29.10;32.50;;;;;;5068427;28;20016;-74
2021/09/11 12:00:46;;;;;;;7.93;2.90;;;29.20;32.70;;;;;;5067167;28;20028;-75
2021/09/11 12:03:44;;;;;;;3.90;2.22;;;29.20;32.80;;;;;;5068548;28;20086;-73
2021/09/11 12:06:25;;;;;;;14.27;2.65;;;29.10;32.60;;;;;;5068068;28;20104;-75
2021/09/11 12:08:52;;;;;;;9.98;2.40;;;29.10;33.00;;;;;;5067023;28;20043;-76
2021/09/11 12:11:19;;;;;;;5.82;2.13;;;29.10;31.90;;;;;;5068240;28;20016;-76
2021/09/11 12:13:56;;;;;;;6.78;2.17;;;29.20;32.20;;;;;;5067253;28;20033;-74
2021/09/11 12:16:22;;;;;;;8.20;2.25;;;29.30;31.90;;;;;;5067392;28;20122;-74
2021/09/11 12:18:48;;;;;;;5.18;2.28;;;29.30;31.70;;;;;;5068272;28;20020;-74
2021/09/11 12:21:16;;;;;;;6.80;2.45;;;29.30;31.60;;;;;;5068244;28;20128;-75
2021/09/11 12:23:52;;;;;;;5.05;2.25;;;29.30;31.60;;;;;;5067040;28;20043;-75
2021/09/11 12:26:32;;;;;;;14.85;2.30;;;29.30;30.30;;;;;;5068163;28;20048;-75
2021/09/11 12:29:04;;;;;;;11.02;3.13;;;29.30;31.70;;;;;;5068345;28;20038;-76
2021/09/11 12:31:32;;;;;;;9.32;2.45;;;29.30;32.00;;;;;;5067922;28;20016;-75
2021/09/11 12:34:05;;;;;;;11.75;2.67;;;29.30;32.00;;;;;;5068599;28;20040;-75
2021/09/11 12:36:46;;;;;;;6.50;2.70;;;29.30;31.80;;;;;;5069653;28;20052;-75
2021/09/11 12:39:15;;;;;;;6.25;2.20;;;29.30;31.90;;;;;;5072272;28;20095;-74
2021/09/11 12:41:42;;;;;;;6.82;2.60;;;29.30;31.70;;;;;;5071973;28;20032;-75
2021/09/11 12:44:08;;;;;;;12.15;3.33;;;29.30;31.50;;;;;;5072105;28;20056;-74
2021/09/11 12:46:38;;;;;;;3.55;2.08;;;29.20;31.10;;;;;;5072047;28;20030;-75
2021/09/11 12:49:08;;;;;;;5.05;2.45;;;29.20;31.60;;;;;;5072085;28;20024;-75
2021/09/11 12:51:36;;;;;;;6.90;1.85;;;29.30;31.60;;;;;;5071918;28;20028;-76
2021/09/11 12:54:02;;;;;;;18.17;2.63;;;29.30;31.60;;;;;;5072032;28;20382;-75
2021/09/11 12:56:28;;;;;;;10.00;2.30;;;29.20;31.50;;;;;;5070493;28;20132;-75